createdAt,value
2022-10-15T00:01:21.177Z,38.19
2022-10-15T00:03:48.078Z,39.52
2022-10-15T00:06:19.563Z,39.52
2022-10-15T00:08:47.616Z,39.33
2022-10-15T00:11:18.998Z,36.48
2022-10-15T00:13:46.724Z,42.37
2022-10-15T00:16:18.943Z,37.24
2022-10-15T00:18:46.206Z,40.47
2022-10-15T00:21:17.189Z,36.86
2022-10-15T00:23:45.048Z,52.63
2022-10-15T00:26:19.783Z,37.81
2022-10-15T00:28:49.781Z,43.13
2022-10-15T00:31:20.863Z,41.80
2022-10-15T00:33:50.633Z,41.80
2022-10-15T00:36:21.416Z,41.23
2022-10-15T00:38:49.316Z,43.70
2022-10-15T00:41:30.662Z,39.14
2022-10-15T00:44:28.539Z,37.62
2022-10-15T00:47:27.862Z,37.43
2022-10-15T00:50:24.727Z,37.43
2022-10-15T00:53:01.815Z,38.76
2022-10-15T00:55:35.304Z,39.71
2022-10-15T00:58:13.965Z,38.19
2022-10-15T01:00:41.535Z,41.80
2022-10-15T01:03:08.814Z,37.24
2022-10-15T01:05:39.521Z,40.09
2022-10-15T01:08:06.121Z,36.86
2022-10-15T01:10:50.632Z,40.66
2022-10-15T01:13:59.051Z,37.81
2022-10-15T01:16:50.812Z,35.91
2022-10-15T01:19:57.972Z,42.37
2022-10-15T01:22:46.633Z,40.85
2022-10-15T01:25:53.701Z,40.28
2022-10-15T01:29:00.553Z,37.62
2022-10-15T01:32:02.627Z,41.80
2022-10-15T01:34:41.208Z,39.14
2022-10-15T01:37:28.923Z,38.00
2022-10-15T01:40:08.394Z,38.76
2022-10-15T01:43:02.539Z,37.43
2022-10-15T01:45:57.350Z,38.19
2022-10-15T01:48:29.260Z,39.14
2022-10-15T01:51:06.198Z,37.62
2022-10-15T01:53:36.415Z,41.23
2022-10-15T01:56:24.539Z,38.38
2022-10-15T01:58:55.819Z,40.09
2022-10-15T02:01:22.839Z,43.13
2022-10-15T02:03:52.998Z,39.90
2022-10-15T02:06:34.979Z,41.42
2022-10-15T02:09:29.696Z,40.09
2022-10-15T02:12:20.115Z,39.90
2022-10-15T02:15:14.529Z,40.09
2022-10-15T02:18:10.119Z,38.76
2022-10-15T02:20:48.854Z,46.74
2022-10-15T02:23:43.095Z,46.74
2022-10-15T02:26:13.421Z,41.99
2022-10-15T02:28:46.204Z,39.71
2022-10-15T02:31:18.755Z,38.76
2022-10-15T02:33:47.508Z,40.47
2022-10-15T02:36:16.502Z,40.09
2022-10-15T02:38:45.980Z,40.09
2022-10-15T02:41:14.193Z,38.95
2022-10-15T02:43:41.844Z,43.13
2022-10-15T02:46:12.949Z,39.33
2022-10-15T02:48:39.557Z,40.09
2022-10-15T02:51:06.259Z,39.71
2022-10-15T02:53:33.877Z,38.76
2022-10-15T02:56:00.669Z,37.81
2022-10-15T02:58:29.215Z,40.85
2022-10-15T03:00:56.335Z,38.00
2022-10-15T03:03:23.552Z,40.09
2022-10-15T03:05:50.385Z,37.24
2022-10-15T03:08:17.060Z,41.80
2022-10-15T03:10:45.636Z,39.14
2022-10-15T03:13:12.748Z,37.43
2022-10-15T03:15:39.711Z,40.28
2022-10-15T03:18:08.290Z,36.48
2022-10-15T03:20:35.860Z,39.52
2022-10-15T03:23:02.996Z,36.67
2022-10-15T03:25:29.823Z,36.10
2022-10-15T03:27:57.069Z,38.38
2022-10-15T03:30:23.900Z,33.63
2022-10-15T03:32:50.989Z,34.58
2022-10-15T03:35:17.885Z,40.09
2022-10-15T03:37:44.578Z,36.29
2022-10-15T03:40:13.789Z,35.91
2022-10-15T03:42:41.581Z,39.52
2022-10-15T03:45:09.252Z,35.15
2022-10-15T03:47:36.025Z,37.24
2022-10-15T03:50:02.886Z,38.57
2022-10-15T03:52:29.501Z,34.96
2022-10-15T03:54:56.144Z,36.29
2022-10-15T03:57:22.975Z,33.82
2022-10-15T03:59:49.768Z,34.01
2022-10-15T04:02:16.503Z,38.38
2022-10-15T04:04:43.294Z,34.39
2022-10-15T04:07:10.276Z,31.73
2022-10-15T04:09:36.879Z,29.45
2022-10-15T04:12:04.749Z,34.39
2022-10-15T04:14:31.524Z,39.14
2022-10-15T04:16:59.170Z,31.54
2022-10-15T04:19:26.117Z,41.99
2022-10-15T04:21:53.035Z,37.62
2022-10-15T04:24:19.748Z,34.58
2022-10-15T04:26:46.439Z,31.92
2022-10-15T04:29:13.331Z,32.87
2022-10-15T04:31:41.037Z,35.72
2022-10-15T04:34:08.755Z,32.87
2022-10-15T04:36:36.271Z,33.06
2022-10-15T04:39:05.147Z,30.40
2022-10-15T04:41:32.603Z,32.87
2022-10-15T04:43:59.242Z,29.64
2022-10-15T04:46:25.967Z,30.97
2022-10-15T04:48:57.646Z,31.35
2022-10-15T04:51:26.713Z,31.73
2022-10-15T04:53:54.811Z,31.54
2022-10-15T04:56:23.291Z,29.83
2022-10-15T04:58:51.568Z,34.01
2022-10-15T05:01:20.552Z,32.30
2022-10-15T05:03:49.456Z,33.25
2022-10-15T05:06:22.429Z,29.64
2022-10-15T05:08:50.512Z,30.40
2022-10-15T05:11:22.081Z,30.02
2022-10-15T05:13:50.143Z,28.88
2022-10-15T05:16:21.885Z,29.07
2022-10-15T05:18:51.581Z,30.02
2022-10-15T05:21:19.998Z,28.88
2022-10-15T05:23:47.865Z,28.31
2022-10-15T05:26:19.957Z,28.50
2022-10-15T05:28:47.148Z,28.31
2022-10-15T05:31:19.310Z,30.40
2022-10-15T05:33:52.326Z,30.40
2022-10-15T05:36:29.934Z,26.22
2022-10-15T05:39:00.623Z,27.93
2022-10-15T05:41:29.067Z,28.12
2022-10-15T05:43:58.653Z,26.22
2022-10-15T05:46:26.155Z,27.74
2022-10-15T05:48:56.676Z,27.36
2022-10-15T05:51:26.315Z,26.98
2022-10-15T05:53:58.044Z,27.55
2022-10-15T05:56:26.391Z,26.03
2022-10-15T05:58:53.358Z,25.84
2022-10-15T06:01:20.408Z,27.93
2022-10-15T06:03:47.494Z,27.36
2022-10-15T06:06:21.256Z,26.41
2022-10-15T06:08:49.831Z,26.79
2022-10-15T06:11:17.742Z,30.02
2022-10-15T06:13:45.986Z,26.98
2022-10-15T06:16:19.319Z,29.45
2022-10-15T06:18:49.968Z,32.11
2022-10-15T06:21:16.659Z,24.89
2022-10-15T06:23:43.301Z,32.49
2022-10-15T06:26:10.744Z,26.22
2022-10-15T06:28:38.764Z,24.89
2022-10-15T06:31:06.795Z,28.50
2022-10-15T06:33:34.298Z,26.22
2022-10-15T06:36:08.391Z,27.93
2022-10-15T06:38:35.928Z,26.41
2022-10-15T06:41:07.740Z,26.79
2022-10-15T06:43:35.675Z,28.31
2022-10-15T06:46:05.700Z,27.93
2022-10-15T06:48:33.469Z,27.74
2022-10-15T06:51:02.215Z,28.31
2022-10-15T06:53:30.330Z,28.88
2022-10-15T06:56:03.729Z,29.26
2022-10-15T06:58:30.753Z,31.54
2022-10-15T07:01:03.406Z,31.54
2022-10-15T07:03:30.395Z,27.93
2022-10-15T07:06:01.243Z,26.60
2022-10-15T07:08:27.967Z,27.17
2022-10-15T07:10:54.903Z,26.22
2022-10-15T07:13:21.967Z,25.46
2022-10-15T07:15:53.787Z,22.23
2022-10-15T07:18:20.549Z,23.18
2022-10-15T07:20:47.556Z,22.99
2022-10-15T07:23:14.219Z,22.23
2022-10-15T07:25:40.967Z,26.98
2022-10-15T07:28:07.723Z,23.37
2022-10-15T07:30:34.391Z,19.95
2022-10-15T07:33:01.049Z,20.71
2022-10-15T07:35:28.777Z,22.61
2022-10-15T07:37:55.502Z,18.62
2022-10-15T07:40:22.446Z,18.24
2022-10-15T07:42:57.788Z,24.13
2022-10-15T07:45:26.737Z,20.14
2022-10-15T07:47:54.348Z,22.42
2022-10-15T07:50:21.920Z,18.81
2022-10-15T07:52:48.818Z,14.63
2022-10-15T07:55:15.737Z,21.47
2022-10-15T07:57:42.455Z,22.61
2022-10-15T08:00:10.006Z,16.15
2022-10-15T08:02:36.742Z,19.57
2022-10-15T08:05:04.348Z,19.95
2022-10-15T08:07:31.013Z,18.62
2022-10-15T08:09:57.667Z,24.13
2022-10-15T08:12:24.561Z,17.86
2022-10-15T08:14:52.030Z,21.85
2022-10-15T08:17:18.639Z,20.71
2022-10-15T08:19:45.307Z,21.47
2022-10-15T08:22:12.711Z,19.95
2022-10-15T08:24:39.376Z,21.47
2022-10-15T08:27:06.259Z,19.19
2022-10-15T08:29:33.101Z,18.81
2022-10-15T08:31:59.867Z,18.43
2022-10-15T08:34:26.768Z,17.67
2022-10-15T08:36:53.440Z,18.62
2022-10-15T08:39:20.291Z,17.48
2022-10-15T08:41:53.674Z,17.48
2022-10-15T08:44:50.620Z,17.48
2022-10-15T08:47:51.269Z,18.43
2022-10-15T08:51:03.858Z,16.15
2022-10-15T08:53:41.472Z,14.06
2022-10-15T08:56:26.956Z,15.20
2022-10-15T08:59:08.988Z,15.58
2022-10-15T09:01:48.085Z,16.15
2022-10-15T09:04:46.943Z,16.53
2022-10-15T09:07:26.498Z,14.82
2022-10-15T09:10:06.066Z,18.05
2022-10-15T09:13:02.264Z,15.77
2022-10-15T09:15:41.297Z,16.53
2022-10-15T09:18:20.487Z,18.43
2022-10-15T09:20:47.774Z,16.53
2022-10-15T09:23:21.911Z,18.43
2022-10-15T09:26:34.102Z,17.86
2022-10-15T09:29:39.630Z,18.81
2022-10-15T09:32:44.964Z,18.24
2022-10-15T09:35:24.295Z,14.63
2022-10-15T09:38:13.093Z,13.49
2022-10-15T09:41:16.763Z,15.01
2022-10-15T09:43:51.112Z,14.06
2022-10-15T09:46:17.872Z,12.73
2022-10-15T09:49:03.568Z,16.53
2022-10-15T09:51:46.085Z,14.44
2022-10-15T09:54:45.548Z,11.97
2022-10-15T09:57:15.478Z,38.76
2022-10-15T10:00:02.815Z,19.38
2022-10-15T10:02:30.662Z,15.01
2022-10-15T10:04:57.842Z,14.25
2022-10-15T10:07:34.984Z,18.05
2022-10-15T10:10:27.655Z,14.82
2022-10-15T10:12:58.484Z,15.96
2022-10-15T10:15:43.860Z,12.35
2022-10-15T10:18:23.966Z,14.25
2022-10-15T10:21:32.639Z,15.39
2022-10-15T10:24:38.076Z,13.30
2022-10-15T10:27:18.351Z,14.63
2022-10-15T10:29:54.979Z,12.35
2022-10-15T10:32:32.413Z,19.38
2022-10-15T10:35:02.865Z,13.87
2022-10-15T10:37:41.967Z,20.33
2022-10-15T10:40:27.961Z,63.84
2022-10-15T10:43:17.470Z,36.86
2022-10-15T10:45:58.900Z,14.82
2022-10-15T10:48:43.952Z,13.30
2022-10-15T10:51:20.302Z,11.40
2022-10-15T10:53:54.983Z,12.73
2022-10-15T10:56:28.694Z,12.16
2022-10-15T10:59:02.273Z,11.78
2022-10-15T11:01:29.949Z,13.30
2022-10-15T11:03:56.753Z,12.16
2022-10-15T11:06:41.314Z,10.83
2022-10-15T11:09:52.404Z,11.97
2022-10-15T11:13:05.944Z,10.07
2022-10-15T11:16:04.011Z,12.54
2022-10-15T11:19:18.796Z,14.06
2022-10-15T11:22:10.846Z,10.45
2022-10-15T11:25:07.202Z,10.83
2022-10-15T11:28:26.094Z,12.35
2022-10-15T11:31:32.321Z,11.21
2022-10-15T11:34:49.106Z,11.59
2022-10-15T11:37:48.545Z,10.64
2022-10-15T11:40:37.771Z,9.88
2022-10-15T11:43:53.874Z,9.88
2022-10-15T11:47:07.024Z,10.45
2022-10-15T11:50:17.196Z,9.88
2022-10-15T11:53:11.711Z,10.64
2022-10-15T11:55:59.252Z,11.21
2022-10-15T11:58:34.856Z,9.69
2022-10-15T12:01:20.110Z,10.64
2022-10-15T12:03:59.894Z,12.35
2022-10-15T12:06:36.123Z,8.36
2022-10-15T12:09:05.393Z,9.88
2022-10-15T12:11:47.180Z,8.93
2022-10-15T12:14:39.956Z,8.36
2022-10-15T12:17:33.822Z,9.12
2022-10-15T12:20:17.041Z,10.26
2022-10-15T12:22:46.559Z,8.17
2022-10-15T12:25:36.202Z,10.26
2022-10-15T12:28:08.586Z,8.17
2022-10-15T12:30:37.729Z,10.64
2022-10-15T12:33:39.236Z,11.21
2022-10-15T12:36:28.117Z,11.21
2022-10-15T12:39:00.475Z,9.69
2022-10-15T12:41:38.514Z,11.59
2022-10-15T12:44:22.890Z,8.93
2022-10-15T12:46:50.420Z,9.50
2022-10-15T12:49:26.317Z,7.79
2022-10-15T12:51:56.360Z,9.12
2022-10-15T12:54:44.058Z,8.74
2022-10-15T12:57:45.954Z,9.12
2022-10-15T13:00:24.494Z,8.36
2022-10-15T13:02:54.723Z,10.07
2022-10-15T13:05:29.962Z,8.55
2022-10-15T13:08:00.704Z,11.78
2022-10-15T13:10:34.002Z,7.22
2022-10-15T13:13:06.049Z,7.41
2022-10-15T13:15:34.437Z,8.55
2022-10-15T13:18:13.084Z,7.22
2022-10-15T13:20:46.251Z,7.41
2022-10-15T13:23:30.907Z,8.17
2022-10-15T13:26:21.409Z,8.74
2022-10-15T13:28:52.561Z,8.17
2022-10-15T13:31:34.997Z,6.84
2022-10-15T13:34:33.132Z,7.22
2022-10-15T13:37:03.156Z,6.84
2022-10-15T13:39:41.477Z,10.07
2022-10-15T13:42:19.730Z,11.02
2022-10-15T13:45:24.612Z,12.92
2022-10-15T13:47:54.356Z,8.93
2022-10-15T13:50:31.069Z,14.44
2022-10-15T13:53:09.451Z,13.30
2022-10-15T13:55:41.590Z,12.35
2022-10-15T13:58:38.663Z,12.35
2022-10-15T14:01:18.333Z,11.40
2022-10-15T14:03:50.961Z,10.07
2022-10-15T14:06:26.464Z,11.02
2022-10-15T14:09:16.034Z,9.50
2022-10-15T14:11:42.757Z,8.55
2022-10-15T14:14:31.363Z,8.74
2022-10-15T14:17:02.730Z,9.69
2022-10-15T14:19:34.196Z,8.74
2022-10-15T14:22:01.582Z,8.93
2022-10-15T14:24:34.608Z,8.17
2022-10-15T14:27:13.615Z,8.36
2022-10-15T14:29:47.421Z,7.03
2022-10-15T14:32:44.866Z,8.36
2022-10-15T14:35:35.509Z,6.27
2022-10-15T14:38:16.660Z,6.46
2022-10-15T14:41:07.676Z,6.46
2022-10-15T14:43:37.080Z,5.89
2022-10-15T14:46:17.773Z,6.65
2022-10-15T14:48:45.176Z,6.08
2022-10-15T14:51:25.017Z,5.70
2022-10-15T14:53:53.323Z,6.46
2022-10-15T14:56:28.344Z,6.84
2022-10-15T14:58:58.040Z,5.89
2022-10-15T15:01:27.496Z,7.79
2022-10-15T15:03:58.213Z,7.41
2022-10-15T15:06:24.960Z,5.70
2022-10-15T15:08:51.590Z,6.84
2022-10-15T15:11:25.308Z,7.03
2022-10-15T15:13:54.098Z,6.65
2022-10-15T15:16:20.754Z,6.27
2022-10-15T15:18:48.827Z,7.22
2022-10-15T15:21:22.292Z,6.27
2022-10-15T15:23:49.870Z,6.46
2022-10-15T15:26:16.592Z,5.70
2022-10-15T15:28:43.335Z,6.27
2022-10-15T15:31:17.455Z,7.79
2022-10-15T15:33:44.749Z,7.03
2022-10-15T15:36:20.899Z,7.03
2022-10-15T15:38:51.680Z,7.98
2022-10-15T15:41:22.214Z,8.55
2022-10-15T15:43:50.443Z,32.87
2022-10-15T15:46:17.465Z,16.53
2022-10-15T15:48:44.494Z,11.59
2022-10-15T15:51:26.006Z,11.97
2022-10-15T15:53:52.690Z,10.45
2022-10-15T15:56:19.529Z,6.65
2022-10-15T15:58:46.767Z,8.36
2022-10-15T16:01:13.486Z,11.59
2022-10-15T16:03:40.152Z,7.41
2022-10-15T16:06:08.424Z,10.45
2022-10-15T16:08:37.132Z,8.17
2022-10-15T16:11:06.487Z,11.21
2022-10-15T16:13:34.302Z,11.78
2022-10-15T16:16:01.271Z,9.50
2022-10-15T16:18:28.091Z,9.50
2022-10-15T16:20:55.493Z,10.64
2022-10-15T16:23:22.151Z,13.49
2022-10-15T16:25:48.834Z,12.35
2022-10-15T16:28:15.462Z,10.07
2022-10-15T16:30:42.088Z,11.78
2022-10-15T16:35:41.260Z,11.59
2022-10-15T16:38:08.891Z,11.78
2022-10-15T16:40:35.711Z,14.06
2022-10-15T16:43:02.382Z,12.35
2022-10-15T16:45:29.097Z,13.49
2022-10-15T16:47:55.713Z,14.06
2022-10-15T16:50:22.927Z,13.49
2022-10-15T16:52:49.630Z,14.82
2022-10-15T16:55:17.140Z,16.91
2022-10-15T16:57:44.406Z,14.25
2022-10-15T17:00:12.018Z,13.68
2022-10-15T17:02:38.735Z,11.97
2022-10-15T17:05:06.621Z,14.06
2022-10-15T17:07:33.241Z,14.25
2022-10-15T17:10:00.364Z,16.72
2022-10-15T17:12:27.554Z,15.39
2022-10-15T17:14:54.539Z,18.62
2022-10-15T17:17:21.221Z,15.77
2022-10-15T17:19:47.860Z,16.53
2022-10-15T17:22:14.496Z,19.00
2022-10-15T17:24:41.186Z,18.81
2022-10-15T17:27:07.776Z,18.24
2022-10-15T17:29:34.868Z,21.09
2022-10-15T17:32:02.914Z,19.38
2022-10-15T17:34:29.722Z,20.33
2022-10-15T17:36:57.090Z,22.23
2022-10-15T17:39:24.328Z,22.04
2022-10-15T17:41:52.204Z,23.37
2022-10-15T17:44:19.857Z,22.99
2022-10-15T17:46:46.601Z,24.51
2022-10-15T17:49:18.006Z,25.08
2022-10-15T17:51:46.023Z,25.27
2022-10-15T17:54:13.206Z,23.37
2022-10-15T17:56:40.592Z,23.37
2022-10-15T17:59:11.584Z,25.46
2022-10-15T18:01:58.705Z,27.36
2022-10-15T18:04:29.467Z,27.17
2022-10-15T18:06:56.996Z,28.12
2022-10-15T18:09:25.988Z,30.40
2022-10-15T18:11:52.669Z,30.21
2022-10-15T18:16:51.399Z,28.88
2022-10-15T18:19:18.620Z,27.74
2022-10-15T18:21:48.628Z,26.98
2022-10-15T18:24:21.581Z,22.80
2022-10-15T18:26:53.048Z,24.51
2022-10-15T18:29:20.795Z,25.46
2022-10-15T18:31:48.869Z,26.79
2022-10-15T18:34:17.136Z,28.12
2022-10-15T18:36:43.984Z,31.35
2022-10-15T18:39:11.339Z,28.31
2022-10-15T18:41:40.137Z,27.55
2022-10-15T18:44:17.106Z,27.93
2022-10-15T18:46:45.668Z,27.55
2022-10-15T18:49:15.734Z,28.12
2022-10-15T18:51:43.412Z,24.89
2022-10-15T18:54:11.003Z,24.32
2022-10-15T18:56:38.956Z,23.37
2022-10-15T18:59:05.806Z,22.42
2022-10-15T19:01:35.495Z,22.42
2022-10-15T19:04:09.244Z,21.28
2022-10-15T19:06:40.199Z,23.94
2022-10-15T19:09:11.680Z,23.18
2022-10-15T19:11:41.003Z,21.28
2022-10-15T19:14:08.698Z,24.70
2022-10-15T19:16:36.033Z,21.09
2022-10-15T19:19:05.057Z,21.66
2022-10-15T19:21:33.030Z,20.52
2022-10-15T19:24:00.271Z,22.42
2022-10-15T19:26:28.407Z,19.76
2022-10-15T19:28:55.727Z,24.13
2022-10-15T19:31:33.558Z,22.23
2022-10-15T19:34:00.643Z,22.99
2022-10-15T19:36:34.372Z,20.71
2022-10-15T19:39:07.759Z,19.38
2022-10-15T19:41:40.644Z,21.66
2022-10-15T19:44:09.251Z,19.38
2022-10-15T19:46:37.816Z,21.85
2022-10-15T19:49:10.575Z,22.04
2022-10-15T19:51:37.494Z,20.71
2022-10-15T19:54:04.745Z,24.89
2022-10-15T19:56:33.045Z,22.23
2022-10-15T19:59:04.555Z,26.98
2022-10-15T20:01:31.438Z,22.23
2022-10-15T20:04:06.081Z,22.80
2022-10-15T20:06:36.613Z,22.23
2022-10-15T20:09:07.223Z,23.37
2022-10-15T20:11:34.775Z,22.42
2022-10-15T20:14:01.786Z,21.09
2022-10-15T20:16:32.939Z,19.38
2022-10-15T20:19:05.638Z,19.76
2022-10-15T20:21:33.877Z,17.29
2022-10-15T20:24:04.642Z,17.86
2022-10-15T20:26:32.924Z,15.01
2022-10-15T20:28:59.722Z,16.53
2022-10-15T20:31:32.151Z,13.87
2022-10-15T20:34:00.769Z,15.39
2022-10-15T20:36:27.906Z,15.77
2022-10-15T20:38:57.235Z,13.11
2022-10-15T20:41:24.133Z,11.02
2022-10-15T20:43:56.023Z,11.97
2022-10-15T20:46:34.066Z,10.26
2022-10-15T20:49:09.433Z,9.88
2022-10-15T20:51:41.236Z,11.59
2022-10-15T20:54:09.402Z,12.54
2022-10-15T20:56:36.344Z,10.26
2022-10-15T20:59:05.133Z,8.74
2022-10-15T21:01:33.955Z,11.21
2022-10-15T21:04:02.182Z,11.59
2022-10-15T21:06:28.900Z,8.93
2022-10-15T21:08:57.468Z,8.74
2022-10-15T21:11:24.533Z,8.93
2022-10-15T21:13:51.177Z,10.45
2022-10-15T21:16:18.136Z,8.55
2022-10-15T21:18:44.964Z,9.50
2022-10-15T21:21:14.854Z,9.50
2022-10-15T21:23:42.847Z,8.17
2022-10-15T21:26:16.779Z,7.60
2022-10-15T21:28:45.220Z,7.03
2022-10-15T21:31:17.362Z,7.98
2022-10-15T21:33:45.988Z,10.45
2022-10-15T21:36:24.963Z,8.74
2022-10-15T21:39:05.323Z,9.50
2022-10-15T21:41:36.257Z,7.60
2022-10-15T21:44:07.013Z,8.55
2022-10-15T21:46:35.081Z,9.12
2022-10-15T21:49:03.407Z,8.74
2022-10-15T21:51:33.772Z,8.17
2022-10-15T21:54:03.552Z,8.55
2022-10-15T21:56:31.701Z,9.88
2022-10-15T21:59:01.380Z,8.36
2022-10-15T22:01:33.097Z,9.12
2022-10-15T22:04:03.999Z,9.12
2022-10-15T22:06:32.077Z,9.31
2022-10-15T22:09:01.446Z,9.31
2022-10-15T22:11:38.097Z,9.88
2022-10-15T22:14:11.374Z,12.16
2022-10-15T22:16:40.346Z,8.93
2022-10-15T22:19:10.342Z,8.17
2022-10-15T22:21:38.942Z,7.03
2022-10-15T22:24:12.781Z,7.79
2022-10-15T22:26:44.391Z,6.46
2022-10-15T22:29:31.666Z,7.98
2022-10-15T22:32:02.066Z,8.17
2022-10-15T22:34:28.886Z,8.93
2022-10-15T22:36:55.520Z,7.22
2022-10-15T22:39:22.430Z,7.03
2022-10-15T22:41:49.305Z,7.41
2022-10-15T22:44:20.614Z,8.55
2022-10-15T22:46:49.586Z,9.88
2022-10-15T22:49:20.846Z,8.17
2022-10-15T22:51:49.484Z,7.03
2022-10-15T22:54:21.954Z,8.74
2022-10-15T22:56:50.661Z,7.22
2022-10-15T22:59:17.888Z,8.55
2022-10-15T23:01:47.925Z,7.98
2022-10-15T23:04:16.494Z,9.12
2022-10-15T23:06:44.054Z,7.60
2022-10-15T23:09:17.500Z,7.41
2022-10-15T23:11:45.318Z,7.79
2022-10-15T23:14:15.266Z,6.08
2022-10-15T23:16:46.032Z,7.22
2022-10-15T23:19:17.514Z,8.36
2022-10-15T23:21:49.160Z,12.35
2022-10-15T23:24:18.673Z,7.60
2022-10-15T23:26:46.235Z,8.36
2022-10-15T23:29:25.532Z,7.22
2022-10-15T23:31:54.057Z,6.46
2022-10-15T23:34:24.776Z,7.03
2022-10-15T23:36:52.860Z,9.12
2022-10-15T23:39:24.617Z,7.03
2022-10-15T23:41:52.569Z,6.27
2022-10-15T23:44:19.469Z,7.22
2022-10-15T23:46:46.554Z,7.60
2022-10-15T23:49:13.748Z,6.84
2022-10-15T23:51:40.907Z,10.45
2022-10-15T23:54:18.239Z,8.36
2022-10-15T23:56:48.555Z,7.41
2022-10-15T23:59:17.138Z,7.79
